Time;durP1;ratioP1;P1;durP2;ratioP2;P2;SDS_P1;SDS_P2;PMS_P1;PMS_P2;Temp;Humidity;BMP_temperature;BMP_pressure;BME280_temperature;BME280_humidity;BME280_pressure;Samples;Min_cycle;Max_cycle;Signal;HPM_P1;HPM_P2
2021/08/11 00:00:59;;;;;;;;;;;14.70;99.90;;;;;;5136298;27;19923;-90
2021/08/11 00:03:24;;;;;;;;;;;14.70;99.90;;;;;;5129361;27;19923;-91
2021/08/11 00:05:50;;;;;;;;;;;14.70;99.90;;;;;;5135293;27;19958;-90
2021/08/11 00:08:16;;;;;;;;;;;14.70;99.90;;;;;;5113780;27;19923;-91
2021/08/11 00:10:42;;;;;;;;;;;14.70;99.90;;;;;;5132386;27;19923;-90
2021/08/11 00:13:07;;;;;;;;;;;14.70;99.90;;;;;;5103160;27;20457;-90
2021/08/11 00:15:33;;;;;;;;;;;14.70;99.90;;;;;;5145055;27;19972;-90
2021/08/11 00:17:59;;;;;;;;;;;14.60;99.90;;;;;;5161647;27;20042;-91
2021/08/11 00:20:25;;;;;;;;;;;14.60;99.90;;;;;;5126574;27;19975;-90
2021/08/11 00:22:51;;;;;;;;;;;14.60;99.90;;;;;;5146687;27;19953;-90
2021/08/11 00:25:17;;;;;;;;;;;14.50;99.90;;;;;;5140606;27;19919;-90
2021/08/11 00:27:43;;;;;;;;;;;14.50;99.90;;;;;;5133038;27;19937;-90
2021/08/11 00:30:09;;;;;;;;;;;14.50;99.90;;;;;;5142651;27;19923;-90
2021/08/11 00:32:35;;;;;;;;;;;14.40;99.90;;;;;;5140829;27;20014;-90
2021/08/11 00:35:03;;;;;;;;;;;14.40;99.90;;;;;;5125652;27;19990;-90
2021/08/11 00:37:29;;;;;;;;;;;14.40;99.90;;;;;;5161612;27;19999;-90
2021/08/11 00:39:58;;;;;;;;;;;14.40;99.90;;;;;;5129992;27;19958;-90
2021/08/11 00:42:27;;;;;;;;;;;14.40;99.90;;;;;;5129499;27;20435;-90
2021/08/11 00:44:54;;;;;;;;;;;14.40;99.90;;;;;;5142441;27;19925;-90
2021/08/11 00:47:21;;;;;;;;;;;14.40;99.90;;;;;;5157663;27;20281;-89
2021/08/11 00:49:47;;;;;;;;;;;14.50;99.90;;;;;;5165991;27;20332;-90
2021/08/11 00:52:12;;;;;;;;;;;14.50;99.90;;;;;;5161877;27;19923;-91
2021/08/11 00:54:39;;;;;;;;;;;14.50;99.90;;;;;;5163960;27;19967;-90
2021/08/11 00:57:05;;;;;;;;;;;14.50;99.90;;;;;;5128071;27;20275;-90
2021/08/11 00:59:33;;;;;;;;;;;14.50;99.90;;;;;;5130054;27;19923;-90
2021/08/11 01:01:59;;;;;;;;;;;14.50;99.90;;;;;;5147602;27;20408;-90
2021/08/11 01:04:25;;;;;;;;;;;14.60;99.90;;;;;;5126903;27;19922;-90
2021/08/11 01:06:52;;;;;;;;;;;14.60;99.90;;;;;;5112855;27;19927;-90
2021/08/11 01:09:18;;;;;;;;;;;14.60;99.90;;;;;;5141986;27;19923;-90
2021/08/11 01:11:45;;;;;;;;;;;14.60;99.90;;;;;;5150597;27;20029;-90
2021/08/11 01:14:12;;;;;;;;;;;14.60;99.90;;;;;;5128890;27;19923;-91
2021/08/11 01:16:38;;;;;;;;;;;14.60;99.90;;;;;;5153108;27;19926;-90
2021/08/11 01:19:03;;;;;;;;;;;14.60;99.90;;;;;;5155267;27;19922;-90
2021/08/11 01:21:45;;;;;;;;;;;14.70;99.90;;;;;;5153052;27;19918;-90
2021/08/11 01:24:30;;;;;;;;;;;14.70;99.90;;;;;;5134939;27;19927;-90
2021/08/11 01:27:10;;;;;;;;;;;14.70;99.90;;;;;;5153173;27;20386;-90
2021/08/11 01:29:38;;;;;;;;;;;14.70;99.90;;;;;;5134645;27;19927;-91
2021/08/11 01:32:11;;;;;;;;;;;14.70;99.90;;;;;;5134308;27;19923;-90
2021/08/11 01:34:38;;;;;;;;;;;14.70;99.90;;;;;;5134828;27;19933;-91
2021/08/11 01:37:07;;;;;;;;;;;14.70;99.90;;;;;;5160026;27;19967;-91
2021/08/11 01:39:37;;;;;;;;;;;14.70;99.90;;;;;;5137994;27;19929;-90
2021/08/11 01:42:07;;;;;;;;;;;14.60;99.90;;;;;;5173069;27;19923;-90
2021/08/11 01:44:46;;;;;;;;;;;14.70;99.90;;;;;;5173170;27;19995;-90
2021/08/11 01:47:16;;;;;;;;;;;14.70;99.90;;;;;;5137763;27;20009;-90
2021/08/11 01:49:44;;;;;;;;;;;14.70;99.90;;;;;;5154782;27;19925;-90
2021/08/11 01:52:09;;;;;;;;;;;14.80;99.90;;;;;;5163414;27;20496;-90
2021/08/11 01:54:36;;;;;;;;;;;14.80;99.90;;;;;;5117447;27;19954;-91
2021/08/11 01:57:02;;;;;;;;;;;14.90;99.90;;;;;;5152545;27;19919;-90
2021/08/11 01:59:28;;;;;;;;;;;14.90;99.90;;;;;;5136964;27;19942;-90
2021/08/11 02:01:54;;;;;;;;;;;15.00;99.90;;;;;;5137536;27;20378;-90
2021/08/11 02:04:20;;;;;;;;;;;15.00;99.90;;;;;;5097693;27;20022;-90
2021/08/11 02:06:47;;;;;;;;;;;15.10;99.90;;;;;;5096875;27;19924;-90
2021/08/11 02:09:13;;;;;;;;;;;15.10;99.90;;;;;;5148228;27;19915;-90
2021/08/11 02:11:41;;;;;;;;;;;15.10;99.90;;;;;;5134258;27;19930;-89
2021/08/11 02:14:07;;;;;;;;;;;15.10;99.90;;;;;;5130239;27;19919;-90
2021/08/11 02:16:33;;;;;;;;;;;15.10;99.90;;;;;;5131495;27;19984;-90
2021/08/11 02:18:59;;;;;;;;;;;15.00;99.90;;;;;;5125535;27;20382;-90
2021/08/11 02:21:24;;;;;;;;;;;15.00;99.90;;;;;;5095772;27;19947;-90
2021/08/11 02:23:50;;;;;;;;;;;15.00;99.90;;;;;;5128422;27;19919;-90
2021/08/11 02:26:46;;;;;;;;;;;15.00;99.90;;;;;;5146385;27;19956;-90
2021/08/11 02:29:30;;;;;;;;;;;15.00;99.90;;;;;;5129426;27;20382;-90
2021/08/11 02:32:32;;;;;;;;;;;14.90;99.90;;;;;;5129328;27;20348;-90
2021/08/11 02:35:30;;;;;;;;;;;15.00;99.90;;;;;;5067770;28;20050;-90
2021/08/11 02:38:02;;;;;;;;;;;14.90;99.90;;;;;;5102382;27;19930;-90
2021/08/11 02:40:34;;;;;;;;;;;15.00;99.90;;;;;;5130468;27;19969;-90
2021/08/11 02:43:09;;;;;;;;;;;15.00;99.90;;;;;;5112838;27;20304;-90
2021/08/11 02:45:35;;;;;;;;;;;15.00;99.90;;;;;;5130649;27;19920;-90
2021/08/11 02:48:01;;;;;;;;;;;15.00;99.90;;;;;;5112341;28;19958;-89
2021/08/11 02:50:27;;;;;;;;;;;14.90;99.90;;;;;;5130922;28;19923;-89
2021/08/11 02:52:53;;;;;;;;;;;15.00;99.90;;;;;;5113802;28;20006;-90
2021/08/11 02:55:20;;;;;;;;;;;15.00;99.90;;;;;;5130187;28;19953;-90
2021/08/11 02:57:47;;;;;;;;;;;15.00;99.90;;;;;;5132602;27;19979;-89
2021/08/11 03:00:12;;;;;;;;;;;14.90;99.90;;;;;;5132960;27;19919;-89
2021/08/11 03:02:38;;;;;;;;;;;14.90;99.90;;;;;;5147291;27;19934;-90
2021/08/11 03:05:05;;;;;;;;;;;14.90;99.90;;;;;;5133506;27;20445;-90
2021/08/11 03:07:30;;;;;;;;;;;14.80;99.90;;;;;;5116038;27;20290;-90
2021/08/11 03:09:56;;;;;;;;;;;14.80;99.90;;;;;;5133261;27;19923;-90
2021/08/11 03:12:22;;;;;;;;;;;14.80;99.90;;;;;;5123986;27;20263;-90
2021/08/11 03:14:49;;;;;;;;;;;14.80;99.90;;;;;;5116045;27;20453;-90
2021/08/11 03:17:15;;;;;;;;;;;14.70;99.90;;;;;;5116834;27;19942;-90
2021/08/11 03:19:42;;;;;;;;;;;14.70;99.90;;;;;;5133041;27;19930;-90
2021/08/11 03:22:08;;;;;;;;;;;14.70;99.90;;;;;;5132835;27;19927;-89
2021/08/11 03:24:34;;;;;;;;;;;14.70;99.90;;;;;;5172335;27;20008;-90
2021/08/11 03:27:00;;;;;;;;;;;14.70;99.90;;;;;;5153732;27;19926;-90
2021/08/11 03:29:25;;;;;;;;;;;14.70;99.90;;;;;;5116325;27;19919;-90
2021/08/11 03:31:51;;;;;;;;;;;14.70;99.90;;;;;;5132518;27;19919;-90
2021/08/11 03:34:18;;;;;;;;;;;14.70;99.90;;;;;;5150622;27;19926;-89
2021/08/11 03:36:43;;;;;;;;;;;14.70;99.90;;;;;;5137394;27;19923;-90
2021/08/11 03:39:09;;;;;;;;;;;14.70;99.90;;;;;;5157372;27;19926;-90
2021/08/11 03:41:35;;;;;;;;;;;14.70;99.90;;;;;;5157026;27;19923;-90
2021/08/11 03:44:00;;;;;;;;;;;14.60;99.90;;;;;;5143971;27;19934;-90
2021/08/11 03:46:26;;;;;;;;;;;14.60;99.90;;;;;;5119751;27;19923;-90
2021/08/11 03:48:52;;;;;;;;;;;14.60;99.90;;;;;;5120816;27;20013;-90
2021/08/11 03:51:18;;;;;;;;;;;14.60;99.90;;;;;;5120855;27;19945;-90
2021/08/11 03:53:43;;;;;;;;;;;14.60;99.90;;;;;;5176011;27;19922;-90
2021/08/11 03:56:09;;;;;;;;;;;14.50;99.90;;;;;;5139786;27;19925;-89
2021/08/11 03:58:35;;;;;;;;;;;14.60;99.90;;;;;;5110673;27;19926;-90
2021/08/11 04:01:01;;;;;;;;;;;14.60;99.90;;;;;;5118985;27;19984;-90
2021/08/11 04:03:27;;;;;;;;;;;14.50;99.90;;;;;;5147030;27;19926;-91
2021/08/11 04:05:52;;;;;;;;;;;14.50;99.90;;;;;;5140052;27;19923;-89
2021/08/11 04:08:18;;;;;;;;;;;14.50;99.90;;;;;;5156571;27;19923;-89
2021/08/11 04:10:45;;;;;;;;;;;14.50;99.90;;;;;;5122334;27;20918;-90
2021/08/11 04:13:15;;;;;;;;;;;14.50;99.90;;;;;;5174759;27;19919;-90
2021/08/11 04:15:44;;;;;;;;;;;14.50;99.90;;;;;;5139497;27;19964;-90
2021/08/11 04:18:10;;;;;;;;;;;14.50;99.90;;;;;;5156426;27;19946;-89
2021/08/11 04:20:37;;;;;;;;;;;14.50;99.90;;;;;;5121995;27;20386;-90
2021/08/11 04:23:02;;;;;;;;;;;14.40;99.90;;;;;;5165414;27;20278;-90
2021/08/11 04:25:28;;;;;;;;;;;14.40;99.90;;;;;;5118792;27;19930;-90
2021/08/11 04:27:54;;;;;;;;;;;14.40;99.90;;;;;;5121330;27;19950;-90
2021/08/11 04:30:20;;;;;;;;;;;14.40;99.90;;;;;;5136017;27;20412;-90
2021/08/11 04:32:46;;;;;;;;;;;14.50;99.90;;;;;;5135652;27;19961;-90
2021/08/11 04:35:12;;;;;;;;;;;14.40;99.90;;;;;;5118603;27;19927;-91
2021/08/11 04:37:38;;;;;;;;;;;14.40;99.90;;;;;;5135404;27;19991;-89
2021/08/11 04:40:04;;;;;;;;;;;14.40;99.90;;;;;;5118425;27;20093;-90
2021/08/11 04:42:30;;;;;;;;;;;14.40;99.90;;;;;;5118049;27;19984;-90
2021/08/11 04:44:56;;;;;;;;;;;14.40;99.90;;;;;;5153704;27;19923;-90
2021/08/11 04:47:21;;;;;;;;;;;14.50;99.90;;;;;;5101545;27;20350;-90
2021/08/11 04:49:47;;;;;;;;;;;14.50;99.90;;;;;;5117954;27;19923;-90
2021/08/11 04:52:13;;;;;;;;;;;14.50;99.90;;;;;;5135140;27;19991;-90
2021/08/11 04:54:38;;;;;;;;;;;14.50;99.90;;;;;;5138422;27;20416;-89
2021/08/11 04:57:05;;;;;;;;;;;14.50;99.90;;;;;;5134461;27;19926;-89
2021/08/11 04:59:31;;;;;;;;;;;14.50;99.90;;;;;;5135088;27;19972;-90
2021/08/11 05:02:03;;;;;;;;;;;14.50;99.90;;;;;;5119818;27;19927;-89
2021/08/11 05:04:28;;;;;;;;;;;14.50;99.90;;;;;;5171999;27;19929;-90
2021/08/11 05:06:54;;;;;;;;;;;14.50;99.90;;;;;;5155603;27;19927;-90
2021/08/11 05:09:20;;;;;;;;;;;14.50;99.90;;;;;;5138058;27;19919;-90
2021/08/11 05:11:47;;;;;;;;;;;14.50;99.90;;;;;;5154877;27;19983;-89
2021/08/11 05:14:12;;;;;;;;;;;14.50;99.90;;;;;;5121731;27;19926;-90
2021/08/11 05:16:39;;;;;;;;;;;14.60;99.90;;;;;;5135716;27;19930;-90
2021/08/11 05:19:04;;;;;;;;;;;14.60;99.90;;;;;;5138777;27;19919;-90
2021/08/11 05:21:31;;;;;;;;;;;14.60;99.90;;;;;;5116516;27;20444;-90
2021/08/11 05:23:57;;;;;;;;;;;14.60;99.90;;;;;;5135070;27;20489;-90
2021/08/11 05:26:23;;;;;;;;;;;14.60;99.90;;;;;;5103638;27;19927;-90
2021/08/11 05:28:49;;;;;;;;;;;14.60;99.90;;;;;;5134186;27;19926;-91
2021/08/11 05:31:15;;;;;;;;;;;14.60;99.90;;;;;;5135331;27;20264;-89
2021/08/11 05:33:41;;;;;;;;;;;14.60;99.90;;;;;;5127411;27;19919;-90
2021/08/11 05:36:07;;;;;;;;;;;14.70;99.90;;;;;;5134431;27;19933;-90
2021/08/11 05:38:39;;;;;;;;;;;14.60;99.90;;;;;;5154584;27;19923;-90
2021/08/11 05:41:05;;;;;;;;;;;14.70;99.90;;;;;;5152907;27;20289;-90
2021/08/11 05:43:31;;;;;;;;;;;14.70;99.90;;;;;;5145713;27;19918;-90
2021/08/11 05:45:56;;;;;;;;;;;14.70;99.90;;;;;;5155011;27;20326;-90
2021/08/11 05:48:22;;;;;;;;;;;14.70;99.90;;;;;;5126867;27;19923;-90
2021/08/11 05:50:48;;;;;;;;;;;14.70;99.90;;;;;;5120553;27;19922;-89
2021/08/11 05:53:14;;;;;;;;;;;14.70;99.90;;;;;;5119768;27;19944;-90
2021/08/11 05:55:41;;;;;;;;;;;14.80;99.90;;;;;;5138293;27;19923;-90
2021/08/11 05:58:08;;;;;;;;;;;14.80;99.90;;;;;;5141267;27;19929;-91
2021/08/11 06:00:33;;;;;;;;;;;14.80;99.90;;;;;;5154487;27;19927;-90
2021/08/11 06:02:59;;;;;;;;;;;14.90;99.90;;;;;;5147753;27;19988;-89
2021/08/11 06:05:25;;;;;;;;;;;14.90;99.90;;;;;;5101270;27;19919;-89
2021/08/11 06:07:51;;;;;;;;;;;14.90;99.90;;;;;;5135664;27;19960;-90
2021/08/11 06:10:19;;;;;;;;;;;15.00;99.90;;;;;;5136700;27;19930;-89
2021/08/11 06:12:47;;;;;;;;;;;15.00;99.90;;;;;;5136804;27;19919;-92
2021/08/11 06:15:15;;;;;;;;;;;15.00;99.90;;;;;;5107397;27;19944;-93
2021/08/11 06:17:42;;;;;;;;;;;15.10;99.90;;;;;;5105950;27;19961;-93
2021/08/11 06:20:08;;;;;;;;;;;15.10;99.90;;;;;;5156493;27;19922;-92
2021/08/11 06:22:33;;;;;;;;;;;15.20;99.90;;;;;;5134776;27;19919;-92
2021/08/11 06:25:06;;;;;;;;;;;15.20;99.90;;;;;;5136905;27;19958;-92
2021/08/11 06:27:31;;;;;;;;;;;15.30;99.90;;;;;;5120944;27;20383;-92
2021/08/11 06:29:57;;;;;;;;;;;15.40;99.90;;;;;;5135454;27;20016;-93
2021/08/11 06:32:23;;;;;;;;;;;15.50;99.90;;;;;;5118185;27;19923;-90
2021/08/11 06:34:49;;;;;;;;;;;15.60;99.90;;;;;;5101064;27;19919;-93
2021/08/11 06:37:18;;;;;;;;;;;15.70;99.90;;;;;;5101111;27;19927;-86
2021/08/11 06:39:44;;;;;;;;;;;15.80;99.90;;;;;;5162503;27;19923;-86
2021/08/11 06:42:10;;;;;;;;;;;15.90;99.90;;;;;;5170563;27;19919;-86
2021/08/11 06:44:36;;;;;;;;;;;16.00;99.90;;;;;;5140222;27;19922;-90
2021/08/11 06:47:02;;;;;;;;;;;16.10;99.90;;;;;;5135585;27;19923;-92
2021/08/11 06:49:28;;;;;;;;;;;16.10;99.90;;;;;;5117492;27;19930;-89
2021/08/11 06:51:53;;;;;;;;;;;16.20;99.90;;;;;;5125471;27;19984;-93
2021/08/11 06:54:19;;;;;;;;;;;16.30;99.90;;;;;;5135800;27;19919;-87
2021/08/11 06:56:45;;;;;;;;;;;16.30;99.90;;;;;;5149385;27;20025;-86
2021/08/11 06:59:10;;;;;;;;;;;16.30;99.90;;;;;;5150810;27;19930;-86
2021/08/11 07:01:36;;;;;;;;;;;16.40;99.90;;;;;;5141662;27;19927;-85
2021/08/11 07:04:02;;;;;;;;;;;16.50;99.90;;;;;;5160201;27;19929;-86
2021/08/11 07:06:28;;;;;;;;;;;16.60;99.90;;;;;;5155778;27;20024;-84
2021/08/11 07:08:53;;;;;;;;;;;16.60;99.90;;;;;;5152585;27;19922;-85
2021/08/11 07:11:19;;;;;;;;;;;16.80;99.90;;;;;;5170206;27;19922;-86
2021/08/11 07:13:45;;;;;;;;;;;16.90;99.90;;;;;;5152900;27;19919;-85
2021/08/11 07:16:11;;;;;;;;;;;16.90;99.90;;;;;;5170965;27;20014;-87
2021/08/11 07:18:37;;;;;;;;;;;17.00;99.90;;;;;;5152134;27;20014;-87
2021/08/11 07:21:03;;;;;;;;;;;17.10;99.90;;;;;;5170976;27;20430;-86
2021/08/11 07:23:29;;;;;;;;;;;17.20;99.90;;;;;;5138388;27;19980;-86
2021/08/11 07:25:54;;;;;;;;;;;17.20;99.90;;;;;;5143221;27;19918;-86
2021/08/11 07:28:20;;;;;;;;;;;17.20;99.90;;;;;;5141522;27;19932;-87
2021/08/11 07:30:46;;;;;;;;;;;17.30;99.90;;;;;;5144642;27;19923;-85
2021/08/11 07:33:12;;;;;;;;;;;17.30;99.90;;;;;;5143261;27;19950;-86
2021/08/11 07:35:38;;;;;;;;;;;17.40;99.90;;;;;;5142102;27;20021;-86
2021/08/11 07:38:05;;;;;;;;;;;17.40;99.90;;;;;;5160038;27;19955;-85
2021/08/11 07:40:34;;;;;;;;;;;17.40;99.90;;;;;;5161967;27;19929;-86
2021/08/11 07:43:01;;;;;;;;;;;17.40;99.90;;;;;;5161946;27;20066;-86
2021/08/11 07:45:30;;;;;;;;;;;17.40;99.90;;;;;;5139705;27;19919;-86
2021/08/11 07:47:55;;;;;;;;;;;17.50;99.90;;;;;;5156431;27;19925;-87
2021/08/11 07:50:22;;;;;;;;;;;17.50;99.90;;;;;;5126507;27;20010;-86
2021/08/11 07:52:48;;;;;;;;;;;17.60;99.90;;;;;;5158906;27;19923;-86
2021/08/11 07:55:15;;;;;;;;;;;17.60;99.90;;;;;;5173775;27;19929;-86
2021/08/11 07:57:41;;;;;;;;;;;17.60;99.90;;;;;;5159550;27;20018;-86
2021/08/11 08:00:07;;;;;;;;;;;17.70;99.90;;;;;;5160153;27;20026;-86
2021/08/11 08:02:33;;;;;;;;;;;17.80;99.90;;;;;;5146957;27;19988;-87
2021/08/11 08:05:01;;;;;;;;;;;17.90;99.90;;;;;;5133901;27;20386;-86
2021/08/11 08:07:26;;;;;;;;;;;18.00;99.90;;;;;;5143825;27;19923;-87
2021/08/11 08:09:52;;;;;;;;;;;18.10;99.90;;;;;;5134237;27;20426;-87
2021/08/11 08:12:18;;;;;;;;;;;18.10;99.90;;;;;;5134198;27;20640;-87
2021/08/11 08:14:43;;;;;;;;;;;18.20;99.90;;;;;;5159493;27;20373;-87
2021/08/11 08:17:09;;;;;;;;;;;18.20;99.90;;;;;;5174498;27;20022;-88
2021/08/11 08:19:35;;;;;;;;;;;18.30;99.90;;;;;;5150406;27;19968;-87
2021/08/11 08:22:00;;;;;;;;;;;18.40;99.90;;;;;;5134676;27;19923;-87
2021/08/11 08:24:26;;;;;;;;;;;18.40;99.90;;;;;;5135283;27;20496;-87
2021/08/11 08:26:52;;;;;;;;;;;18.40;99.90;;;;;;5158451;27;19918;-87
2021/08/11 08:29:18;;;;;;;;;;;18.40;99.90;;;;;;5132309;27;19930;-87
2021/08/11 08:31:43;;;;;;;;;;;18.40;99.90;;;;;;5173762;27;20400;-87
2021/08/11 08:34:09;;;;;;;;;;;18.50;99.90;;;;;;5144096;27;19927;-85
2021/08/11 08:36:35;;;;;;;;;;;18.50;99.90;;;;;;5147317;27;19972;-85
2021/08/11 08:39:01;;;;;;;;;;;18.50;99.90;;;;;;5154064;27;19927;-86
2021/08/11 08:41:27;;;;;;;;;;;18.60;99.90;;;;;;5151714;27;20043;-85
2021/08/11 08:43:52;;;;;;;;;;;18.60;99.90;;;;;;5129042;27;19930;-84
2021/08/11 08:46:19;;;;;;;;;;;18.60;99.90;;;;;;5160342;27;20397;-86
2021/08/11 08:48:46;;;;;;;;;;;18.60;99.90;;;;;;5154629;27;19923;-86
2021/08/11 08:51:12;;;;;;;;;;;18.70;99.90;;;;;;5164374;27;19922;-87
2021/08/11 08:53:41;;;;;;;;;;;18.70;99.90;;;;;;5137056;27;19927;-86
2021/08/11 08:56:07;;;;;;;;;;;18.80;99.90;;;;;;5160238;27;20009;-87
2021/08/11 08:58:33;;;;;;;;;;;18.70;99.90;;;;;;5146265;27;20033;-87
2021/08/11 09:00:59;;;;;;;;;;;18.80;99.90;;;;;;5148684;27;19930;-86
2021/08/11 09:03:24;;;;;;;;;;;18.90;99.90;;;;;;5161569;27;19926;-86
2021/08/11 09:05:50;;;;;;;;;;;18.80;99.90;;;;;;5132611;27;19975;-87
2021/08/11 09:08:16;;;;;;;;;;;18.90;99.90;;;;;;5158488;27;19929;-86
2021/08/11 09:10:42;;;;;;;;;;;18.90;99.90;;;;;;5159949;27;20377;-86
2021/08/11 09:13:21;;;;;;;;;;;18.90;99.90;;;;;;5147581;27;20373;-87
2021/08/11 09:15:50;;;;;;;;;;;18.90;99.90;;;;;;5153977;27;20021;-86
2021/08/11 09:18:18;;;;;;;;;;;18.90;99.90;;;;;;5141587;27;20352;-86
2021/08/11 09:20:45;;;;;;;;;;;18.90;99.90;;;;;;5163229;27;19927;-86
2021/08/11 09:23:13;;;;;;;;;;;18.80;99.90;;;;;;5156531;27;20393;-86
2021/08/11 09:25:55;;;;;;;;;;;18.70;99.90;;;;;;5149374;27;20013;-87
2021/08/11 09:28:20;;;;;;;;;;;18.70;99.90;;;;;;5136079;27;19919;-85
2021/08/11 09:30:46;;;;;;;;;;;18.80;99.90;;;;;;5162874;27;20397;-88
2021/08/11 09:33:12;;;;;;;;;;;18.90;99.90;;;;;;5136734;27;19968;-86
2021/08/11 09:35:38;;;;;;;;;;;19.00;99.90;;;;;;5115382;27;20034;-91
2021/08/11 09:38:06;;;;;;;;;;;19.00;99.90;;;;;;5122548;27;19923;-87
2021/08/11 09:40:33;;;;;;;;;;;19.10;99.90;;;;;;5132798;27;20400;-88
2021/08/11 09:43:00;;;;;;;;;;;19.20;99.90;;;;;;5131192;27;20522;-86
2021/08/11 09:45:26;;;;;;;;;;;19.30;99.90;;;;;;5139007;27;20135;-87
2021/08/11 09:47:57;;;;;;;;;;;19.30;99.90;;;;;;5168760;27;19922;-86
2021/08/11 09:50:55;;;;;;;;;;;19.30;99.90;;;;;;5144092;27;19959;-86
2021/08/11 09:53:25;;;;;;;;;;;19.20;99.90;;;;;;5120272;27;19987;-88
2021/08/11 09:56:04;;;;;;;;;;;19.20;99.90;;;;;;5149691;27;19923;-89
2021/08/11 09:58:31;;;;;;;;;;;19.20;99.90;;;;;;5124804;27;20271;-88
2021/08/11 10:00:57;;;;;;;;;;;19.20;99.90;;;;;;5167315;27;19934;-87
2021/08/11 10:03:23;;;;;;;;;;;19.20;99.90;;;;;;5149762;27;19927;-82
2021/08/11 10:05:50;;;;;;;;;;;19.20;99.90;;;;;;5150203;27;20305;-81
2021/08/11 10:08:26;;;;;;;;;;;19.20;99.90;;;;;;5140534;27;19923;-82
2021/08/11 10:10:52;;;;;;;;;;;19.30;99.90;;;;;;5168141;27;20301;-81
2021/08/11 10:13:19;;;;;;;;;;;19.30;99.90;;;;;;5135221;27;19930;-81
2021/08/11 10:15:45;;;;;;;;;;;19.30;99.90;;;;;;5153128;27;19919;-90
2021/08/11 10:18:12;;;;;;;;;;;19.20;99.90;;;;;;5129672;27;19919;-89
2021/08/11 10:20:40;;;;;;;;;;;19.30;99.90;;;;;;5152951;27;19930;-88
2021/08/11 10:23:06;;;;;;;;;;;19.30;99.90;;;;;;5134383;27;20259;-88
2021/08/11 10:25:31;;;;;;;;;;;19.30;99.90;;;;;;5151046;27;19923;-88
2021/08/11 10:27:57;;;;;;;;;;;19.30;99.90;;;;;;5160952;27;20319;-88
2021/08/11 10:30:23;;;;;;;;;;;19.40;99.90;;;;;;5138816;27;19922;-89
2021/08/11 10:32:49;;;;;;;;;;;19.40;99.90;;;;;;5122157;27;19919;-88
2021/08/11 10:35:15;;;;;;;;;;;19.40;99.90;;;;;;5131716;27;19919;-87
2021/08/11 10:37:42;;;;;;;;;;;19.50;99.90;;;;;;5149588;27;20400;-87
2021/08/11 10:40:08;;;;;;;;;;;19.50;99.90;;;;;;5151220;27;20343;-87
2021/08/11 10:42:35;;;;;;;;;;;19.60;99.90;;;;;;5118784;27;19924;-89
2021/08/11 10:45:01;;;;;;;;;;;19.60;99.90;;;;;;5120275;27;19929;-89
2021/08/11 10:47:31;;;;;;;;;;;19.70;99.90;;;;;;5161274;27;19948;-87
2021/08/11 10:49:57;;;;;;;;;;;19.70;99.90;;;;;;5133230;27;19923;-88
2021/08/11 10:52:24;;;;;;;;;;;19.80;99.90;;;;;;5132881;27;20559;-88
2021/08/11 10:54:52;;;;;;;;;;;19.80;99.90;;;;;;5160324;27;19919;-89
2021/08/11 10:57:36;;;;;;;;;;;19.90;99.90;;;;;;5136186;27;19923;-88
2021/08/11 11:00:31;;;;;;;;;;;19.80;99.90;;;;;;5142958;27;19981;-90
2021/08/11 11:02:59;;;;;;;;;;;19.90;99.90;;;;;;5138476;27;19927;-88
2021/08/11 11:05:26;;;;;;;;;;;19.90;99.90;;;;;;5142855;27;19919;-89
2021/08/11 11:08:12;;;;;;;;;;;20.10;99.90;;;;;;5156985;27;20021;-90
2021/08/11 11:10:38;;;;;;;;;;;20.10;99.90;;;;;;5142221;27;19990;-89
2021/08/11 11:13:22;;;;;;;;;;;20.10;99.90;;;;;;5135411;27;19919;-88
2021/08/11 11:15:48;;;;;;;;;;;20.20;99.90;;;;;;5161060;27;20567;-89
2021/08/11 11:18:21;;;;;;;;;;;20.30;99.90;;;;;;5163793;27;19971;-89
2021/08/11 11:20:47;;;;;;;;;;;20.30;99.90;;;;;;5147363;27;20715;-89
2021/08/11 11:23:30;;;;;;;;;;;20.30;99.90;;;;;;5131465;27;20005;-89
2021/08/11 11:26:05;;;;;;;;;;;20.40;99.90;;;;;;5148796;27;19923;-88
2021/08/11 11:28:53;;;;;;;;;;;20.40;99.90;;;;;;5160764;27;19923;-87
2021/08/11 11:31:31;;;;;;;;;;;20.40;99.90;;;;;;5146780;27;20440;-88
2021/08/11 11:34:26;;;;;;;;;;;20.50;99.90;;;;;;5156100;27;19961;-88
2021/08/11 11:36:55;;;;;;;;;;;20.50;99.90;;;;;;5145696;27;19923;-87
2021/08/11 11:39:25;;;;;;;;;;;20.50;99.90;;;;;;5167869;27;20310;-87
2021/08/11 11:42:06;;;;;;;;;;;20.60;99.90;;;;;;5136431;27;19927;-87
2021/08/11 11:44:41;;;;;;;;;;;20.60;99.90;;;;;;5160774;27;20363;-86
2021/08/11 11:47:08;;;;;;;;;;;20.60;99.90;;;;;;5156195;27;19923;-87
2021/08/11 11:49:34;;;;;;;;;;;20.70;99.90;;;;;;5154600;27;20007;-88
2021/08/11 11:52:01;;;;;;;;;;;20.70;99.90;;;;;;5165723;27;19968;-87
2021/08/11 11:54:26;;;;;;;;;;;20.70;99.90;;;;;;5143097;27;19923;-88
2021/08/11 11:56:52;;;;;;;;;;;20.70;99.90;;;;;;5126961;27;19919;-87
2021/08/11 11:59:18;;;;;;;;;;;20.80;99.90;;;;;;5125173;27;20047;-88
2021/08/11 12:01:44;;;;;;;;;;;20.90;99.90;;;;;;5156050;27;19923;-89
2021/08/11 12:04:09;;;;;;;;;;;20.90;99.90;;;;;;5122146;27;19926;-88
2021/08/11 12:06:41;;;;;;;;;;;20.90;99.90;;;;;;5137716;27;19980;-88
2021/08/11 12:09:07;;;;;;;;;;;21.00;99.90;;;;;;5162717;27;20290;-87
2021/08/11 12:11:36;;;;;;;;;;;21.00;99.90;;;;;;5164017;27;20468;-88
2021/08/11 12:14:03;;;;;;;;;;;21.10;99.90;;;;;;5160398;27;19972;-88
2021/08/11 12:16:39;;;;;;;;;;;21.10;99.90;;;;;;5153981;27;19923;-88
2021/08/11 12:19:22;;;;;;;;;;;21.20;99.90;;;;;;5165583;27;20022;-88
2021/08/11 12:21:48;;;;;;;;;;;21.20;99.90;;;;;;5154624;27;19931;-88
2021/08/11 12:24:14;;;;;;;;;;;21.20;99.90;;;;;;5148422;27;19929;-87
2021/08/11 12:26:40;;;;;;;;;;;21.30;99.90;;;;;;5155235;27;20397;-89
2021/08/11 12:29:19;;;;;;;;;;;21.40;99.90;;;;;;5156001;27;19923;-88
2021/08/11 12:31:46;;;;;;;;;;;21.40;99.90;;;;;;5170036;27;19972;-87
2021/08/11 12:34:12;;;;;;;;;;;21.50;99.90;;;;;;5156775;27;20007;-87
2021/08/11 12:36:41;;;;;;;;;;;21.50;99.90;;;;;;5133642;27;19923;-86
2021/08/11 12:39:15;;;;;;;;;;;21.60;99.90;;;;;;5136199;27;20017;-86
2021/08/11 12:41:42;;;;;;;;;;;21.60;99.90;;;;;;5151731;27;19937;-87
2021/08/11 12:44:15;;;;;;;;;;;21.60;99.90;;;;;;5144325;27;20010;-87
2021/08/11 12:46:44;;;;;;;;;;;21.70;99.90;;;;;;5150501;27;20301;-88
2021/08/11 12:49:14;;;;;;;;;;;21.60;99.90;;;;;;5132725;27;19919;-88
2021/08/11 12:51:40;;;;;;;;;;;21.70;99.90;;;;;;5155819;27;19919;-87
2021/08/11 12:54:07;;;;;;;;;;;21.70;99.90;;;;;;5142904;27;19925;-87
2021/08/11 12:56:34;;;;;;;;;;;21.80;99.90;;;;;;5162740;27;19919;-88
2021/08/11 12:59:06;;;;;;;;;;;21.80;99.90;;;;;;5153133;27;20004;-88
2021/08/11 13:01:32;;;;;;;;;;;21.80;99.90;;;;;;5169148;27;19926;-87
2021/08/11 13:03:59;;;;;;;;;;;21.90;99.90;;;;;;5151731;27;20204;-87
2021/08/11 13:06:58;;;;;;;;;;;21.90;99.90;;;;;;5160453;27;19922;-87
2021/08/11 13:09:25;;;;;;;;;;;21.90;99.90;;;;;;5079748;27;20013;-88
2021/08/11 13:11:52;;;;;;;;;;;22.00;99.90;;;;;;5168361;27;19960;-88
2021/08/11 13:14:36;;;;;;;;;;;22.10;99.90;;;;;;5144888;27;20009;-86
2021/08/11 13:17:03;;;;;;;;;;;22.10;99.90;;;;;;5152231;27;19923;-87
2021/08/11 13:19:30;;;;;;;;;;;22.10;99.90;;;;;;5105480;27;19955;-86
2021/08/11 13:21:56;;;;;;;;;;;22.20;99.90;;;;;;5148939;27;19968;-87
2021/08/11 13:24:23;;;;;;;;;;;22.20;99.90;;;;;;5135549;27;19919;-89
2021/08/11 13:26:56;;;;;;;;;;;22.30;99.90;;;;;;5138833;27;19922;-89
2021/08/11 13:29:27;;;;;;;;;;;22.40;99.90;;;;;;5124762;27;19992;-88
2021/08/11 13:31:53;;;;;;;;;;;22.40;99.90;;;;;;5158422;27;19926;-89
2021/08/11 13:34:19;;;;;;;;;;;22.50;99.90;;;;;;5132650;27;20373;-89
2021/08/11 13:36:45;;;;;;;;;;;22.50;99.90;;;;;;5164085;27;20009;-89
2021/08/11 13:39:11;;;;;;;;;;;22.60;99.90;;;;;;5136476;27;19919;-88
2021/08/11 13:41:37;;;;;;;;;;;22.60;99.90;;;;;;5132698;27;20013;-88
2021/08/11 13:44:02;;;;;;;;;;;22.60;99.90;;;;;;5160259;27;19923;-89
2021/08/11 13:46:28;;;;;;;;;;;22.60;99.90;;;;;;5161227;27;19919;-89
2021/08/11 13:48:54;;;;;;;;;;;22.60;99.90;;;;;;5153363;27;20413;-89
2021/08/11 13:51:21;;;;;;;;;;;22.70;99.90;;;;;;5132207;27;19923;-89
2021/08/11 13:53:47;;;;;;;;;;;22.70;99.90;;;;;;5167802;27;19927;-89
2021/08/11 13:56:14;;;;;;;;;;;22.70;99.90;;;;;;5140717;27;20377;-89
2021/08/11 13:58:39;;;;;;;;;;;22.70;99.90;;;;;;5168469;27;19929;-89
2021/08/11 14:01:05;;;;;;;;;;;22.70;99.90;;;;;;5131981;27;20441;-88
2021/08/11 14:03:31;;;;;;;;;;;22.60;99.90;;;;;;5167103;27;20286;-88
2021/08/11 14:05:57;;;;;;;;;;;22.50;99.90;;;;;;5137556;27;19930;-88
2021/08/11 14:08:23;;;;;;;;;;;22.50;99.90;;;;;;5126863;27;19923;-88
2021/08/11 14:10:49;;;;;;;;;;;22.40;99.90;;;;;;5131847;27;19937;-88
2021/08/11 14:13:14;;;;;;;;;;;22.50;99.90;;;;;;5156542;27;20376;-88
2021/08/11 14:15:40;;;;;;;;;;;22.60;99.90;;;;;;5150503;27;19979;-88
2021/08/11 14:18:06;;;;;;;;;;;22.70;99.90;;;;;;5164565;27;19919;-86
2021/08/11 14:20:32;;;;;;;;;;;22.80;99.90;;;;;;5159633;27;20390;-88